Time;durP1;ratioP1;P1;durP2;ratioP2;P2;SDS_P1;SDS_P2;PMS_P1;PMS_P2;Temp;Humidity;BMP_temperature;BMP_pressure;BME280_temperature;BME280_humidity;BME280_pressure;Samples;Min_cycle;Max_cycle;Signal;HPM_P1;HPM_P2
2019/09/03 00:00:55;;;;;;;8.349999;7.45;;;;;;;10.53;100;96001.26;;;;
2019/09/03 00:01:58;;;;;;;8.349999;7.45;;;;;;;10.53;100;96001.26;;;;
2019/09/03 00:02:59;;;;;;;8.349999;7.45;;;;;;;10.53;100;96001.26;;;;
2019/09/03 00:04:00;;;;;;;8.349999;7.45;;;;;;;10.53;100;96001.26;;;;
2019/09/03 00:05:02;;;;;;;8.349999;7.45;;;;;;;10.53;100;96001.26;;;;
2019/09/03 00:06:05;;;;;;;8.349999;7.45;;;;;;;10.53;100;96001.26;;;;
2019/09/03 00:07:06;;;;;;;8.749999;7.849999;;;;;;;10.42;100;96002.37;;;;
2019/09/03 00:08:08;;;;;;;8.749999;7.849999;;;;;;;10.42;100;96002.37;;;;
2019/09/03 00:09:09;;;;;;;8.749999;7.849999;;;;;;;10.42;100;96002.37;;;;
2019/09/03 00:10:10;;;;;;;8.749999;7.849999;;;;;;;10.42;100;96002.37;;;;
2019/09/03 00:11:12;;;;;;;8.749999;7.849999;;;;;;;10.42;100;96002.37;;;;
2019/09/03 00:12:14;;;;;;;8.749999;7.849999;;;;;;;10.42;100;96002.37;;;;
2019/09/03 00:13:15;;;;;;;8.749999;7.849999;;;;;;;10.42;100;96002.37;;;;
2019/09/03 00:14:16;;;;;;;8.749999;7.849999;;;;;;;10.42;100;96002.37;;;;
2019/09/03 00:15:18;;;;;;;8.749999;7.849999;;;;;;;10.42;100;96002.37;;;;
2019/09/03 00:16:20;;;;;;;8.749999;7.849999;;;;;;;10.42;100;96002.37;;;;
2019/09/03 00:17:21;;;;;;;8.749999;7.849999;;;;;;;10.42;100;96002.37;;;;
2019/09/03 00:18:23;;;;;;;8.299998;7.5;;;;;;;10.28;100;95998.94;;;;
2019/09/03 00:19:24;;;;;;;8.299998;7.5;;;;;;;10.28;100;95998.94;;;;
2019/09/03 00:20:25;;;;;;;8.299998;7.5;;;;;;;10.28;100;95998.94;;;;
2019/09/03 00:23:28;;;;;;;8.299998;7.5;;;;;;;10.28;100;95998.94;;;;
2019/09/03 00:24:30;;;;;;;8.299998;7.5;;;;;;;10.28;100;95998.94;;;;
2019/09/03 00:25:31;;;;;;;8.299998;7.5;;;;;;;10.28;100;95998.94;;;;
2019/09/03 00:28:37;;;;;;;7.75;6.5;;;;;;;10.2;100;95990.66;;;;
2019/09/03 00:29:38;;;;;;;7.75;6.5;;;;;;;10.2;100;95990.66;;;;
2019/09/03 00:30:39;;;;;;;7.75;6.5;;;;;;;10.2;100;95990.66;;;;
2019/09/03 00:31:41;;;;;;;7.75;6.5;;;;;;;10.2;100;95990.66;;;;
2019/09/03 00:32:43;;;;;;;7.75;6.5;;;;;;;10.2;100;95990.66;;;;
2019/09/03 00:33:44;;;;;;;7.75;6.5;;;;;;;10.2;100;95990.66;;;;
2019/09/03 00:34:45;;;;;;;7.75;6.5;;;;;;;10.2;100;95990.66;;;;
2019/09/03 00:35:46;;;;;;;7.75;6.5;;;;;;;10.2;100;95990.66;;;;
2019/09/03 00:36:49;;;;;;;7.75;6.5;;;;;;;10.2;100;95990.66;;;;
2019/09/03 00:37:50;;;;;;;7.75;6.5;;;;;;;10.2;100;95990.66;;;;
2019/09/03 00:38:52;;;;;;;8.349999;7.4;;;;;;;10.08;100;95985.21;;;;
2019/09/03 00:39:53;;;;;;;8.349999;7.4;;;;;;;10.08;100;95985.21;;;;
2019/09/03 00:40:54;;;;;;;8.349999;7.4;;;;;;;10.08;100;95985.21;;;;
2019/09/03 00:41:56;;;;;;;8.349999;7.4;;;;;;;10.08;100;95985.21;;;;
2019/09/03 00:42:57;;;;;;;8.349999;7.4;;;;;;;10.08;100;95985.21;;;;
2019/09/03 00:43:58;;;;;;;8.349999;7.4;;;;;;;10.08;100;95985.21;;;;
2019/09/03 00:44:59;;;;;;;8.349999;7.4;;;;;;;10.08;100;95985.21;;;;
2019/09/03 00:46:00;;;;;;;8.349999;7.4;;;;;;;10.08;100;95985.21;;;;
2019/09/03 00:47:02;;;;;;;8.349999;7.4;;;;;;;10.08;100;95985.21;;;;
2019/09/03 00:48:03;;;;;;;8.349999;7.4;;;;;;;10.08;100;95985.21;;;;
2019/09/03 00:49:04;;;;;;;8.349999;7.4;;;;;;;10.08;100;95985.21;;;;
2019/09/03 00:50:06;;;;;;;8.199999;7.4;;;;;;;10.09;100;95989.15;;;;
2019/09/03 00:51:07;;;;;;;8.199999;7.4;;;;;;;10.09;100;95989.15;;;;
2019/09/03 00:52:09;;;;;;;8.199999;7.4;;;;;;;10.09;100;95989.15;;;;
2019/09/03 00:53:10;;;;;;;8.199999;7.4;;;;;;;10.09;100;95989.15;;;;
2019/09/03 00:54:11;;;;;;;8.199999;7.4;;;;;;;10.09;100;95989.15;;;;
2019/09/03 00:55:12;;;;;;;8.199999;7.4;;;;;;;10.09;100;95989.15;;;;
2019/09/03 00:56:14;;;;;;;8.199999;7.4;;;;;;;10.09;100;95989.15;;;;
2019/09/03 00:57:16;;;;;;;8.199999;7.4;;;;;;;10.09;100;95989.15;;;;
2019/09/03 00:58:17;;;;;;;8.199999;7.4;;;;;;;10.09;100;95989.15;;;;
2019/09/03 00:59:19;;;;;;;8.199999;7.4;;;;;;;10.09;100;95989.15;;;;
2019/09/03 01:00:20;;;;;;;8.349999;7.550001;;;;;;;9.98;100;95987.04;;;;
2019/09/03 01:01:22;;;;;;;8.349999;7.550001;;;;;;;9.98;100;95987.04;;;;
2019/09/03 01:02:23;;;;;;;8.349999;7.550001;;;;;;;9.98;100;95987.04;;;;
2019/09/03 01:03:24;;;;;;;8.349999;7.550001;;;;;;;9.98;100;95987.04;;;;
2019/09/03 01:04:26;;;;;;;8.349999;7.550001;;;;;;;9.98;100;95987.04;;;;
2019/09/03 01:05:28;;;;;;;8.349999;7.550001;;;;;;;9.98;100;95987.04;;;;
2019/09/03 01:06:29;;;;;;;8.349999;7.550001;;;;;;;9.98;100;95987.04;;;;
2019/09/03 01:07:31;;;;;;;8.349999;7.550001;;;;;;;9.98;100;95987.04;;;;
2019/09/03 01:08:32;;;;;;;8.349999;7.550001;;;;;;;9.98;100;95987.04;;;;
2019/09/03 01:09:34;;;;;;;8.349999;7.550001;;;;;;;9.98;100;95987.04;;;;
2019/09/03 01:10:35;;;;;;;9.649999;8.450001;;;;;;;9.98;100;95975.29;;;;
2019/09/03 01:11:38;;;;;;;9.649999;8.450001;;;;;;;9.98;100;95975.29;;;;
2019/09/03 01:12:39;;;;;;;9.649999;8.450001;;;;;;;9.98;100;95975.29;;;;
2019/09/03 01:13:40;;;;;;;9.649999;8.450001;;;;;;;9.98;100;95975.29;;;;
2019/09/03 01:14:42;;;;;;;9.649999;8.450001;;;;;;;9.98;100;95975.29;;;;
2019/09/03 01:15:43;;;;;;;9.649999;8.450001;;;;;;;9.98;100;95975.29;;;;
2019/09/03 01:16:44;;;;;;;9.649999;8.450001;;;;;;;9.98;100;95975.29;;;;
2019/09/03 01:17:46;;;;;;;9.649999;8.450001;;;;;;;9.98;100;95975.29;;;;
2019/09/03 01:18:47;;;;;;;9.649999;8.450001;;;;;;;9.98;100;95975.29;;;;
2019/09/03 01:19:48;;;;;;;9.649999;8.450001;;;;;;;9.98;100;95975.29;;;;
2019/09/03 01:20:49;;;;;;;9.649999;8.450001;;;;;;;9.98;100;95975.29;;;;
2019/09/03 01:21:51;;;;;;;8.550001;7.5;;;;;;;9.93;100;95982.37;;;;
2019/09/03 01:22:53;;;;;;;8.550001;7.5;;;;;;;9.93;100;95982.37;;;;
2019/09/03 01:23:54;;;;;;;8.550001;7.5;;;;;;;9.93;100;95982.37;;;;
2019/09/03 01:24:55;;;;;;;8.550001;7.5;;;;;;;9.93;100;95982.37;;;;
2019/09/03 01:25:56;;;;;;;8.550001;7.5;;;;;;;9.93;100;95982.37;;;;
2019/09/03 01:26:58;;;;;;;8.550001;7.5;;;;;;;9.93;100;95982.37;;;;
2019/09/03 01:27:59;;;;;;;8.550001;7.5;;;;;;;9.93;100;95982.37;;;;
2019/09/03 01:29:00;;;;;;;8.550001;7.5;;;;;;;9.93;100;95982.37;;;;
2019/09/03 01:30:01;;;;;;;8.550001;7.5;;;;;;;9.93;100;95982.37;;;;
2019/09/03 01:31:03;;;;;;;8.550001;7.5;;;;;;;9.93;100;95982.37;;;;
2019/09/03 01:32:05;;;;;;;8.650001;7.799999;;;;;;;9.87;100;95974.22;;;;
2019/09/03 01:33:06;;;;;;;8.650001;7.799999;;;;;;;9.87;100;95974.22;;;;
2019/09/03 01:34:08;;;;;;;8.650001;7.799999;;;;;;;9.87;100;95974.22;;;;
2019/09/03 01:35:09;;;;;;;8.650001;7.799999;;;;;;;9.87;100;95974.22;;;;
2019/09/03 01:36:12;;;;;;;8.650001;7.799999;;;;;;;9.87;100;95974.22;;;;
2019/09/03 01:37:13;;;;;;;8.650001;7.799999;;;;;;;9.87;100;95974.22;;;;
2019/09/03 01:38:15;;;;;;;8.650001;7.799999;;;;;;;9.87;100;95974.22;;;;
2019/09/03 01:39:16;;;;;;;8.650001;7.799999;;;;;;;9.87;100;95974.22;;;;
2019/09/03 01:40:18;;;;;;;8.650001;7.799999;;;;;;;9.87;100;95974.22;;;;
2019/09/03 01:41:20;;;;;;;8.650001;7.799999;;;;;;;9.87;100;95974.22;;;;
2019/09/03 01:42:22;;;;;;;8.6;7.1;;;;;;;9.75;100;95978.22;;;;
2019/09/03 01:43:23;;;;;;;8.6;7.1;;;;;;;9.75;100;95978.22;;;;
2019/09/03 01:44:25;;;;;;;8.6;7.1;;;;;;;9.75;100;95978.22;;;;
2019/09/03 01:45:26;;;;;;;8.6;7.1;;;;;;;9.75;100;95978.22;;;;
2019/09/03 01:46:33;;;;;;;8.6;7.1;;;;;;;9.75;100;95978.22;;;;
2019/09/03 01:47:35;;;;;;;8.6;7.1;;;;;;;9.75;100;95978.22;;;;
2019/09/03 01:48:36;;;;;;;8.6;7.1;;;;;;;9.75;100;95978.22;;;;
2019/09/03 01:49:38;;;;;;;8.6;7.1;;;;;;;9.75;100;95978.22;;;;
2019/09/03 01:50:39;;;;;;;8.6;7.1;;;;;;;9.75;100;95978.22;;;;
2019/09/03 01:51:45;;;;;;;8.6;7.1;;;;;;;9.75;100;95978.22;;;;
2019/09/03 01:52:47;;;;;;;8.6;7.1;;;;;;;9.75;100;95978.22;;;;
2019/09/03 01:53:48;;;;;;;8.550001;7.100001;;;;;;;9.69;100;95979.06;;;;
2019/09/03 01:54:49;;;;;;;8.550001;7.100001;;;;;;;9.69;100;95979.06;;;;
2019/09/03 01:55:51;;;;;;;8.550001;7.100001;;;;;;;9.69;100;95979.06;;;;
2019/09/03 01:56:52;;;;;;;8.550001;7.100001;;;;;;;9.69;100;95979.06;;;;
2019/09/03 01:57:54;;;;;;;8.550001;7.100001;;;;;;;9.69;100;95979.06;;;;
2019/09/03 01:58:55;;;;;;;8.550001;7.100001;;;;;;;9.69;100;95979.06;;;;
2019/09/03 01:59:56;;;;;;;8.550001;7.100001;;;;;;;9.69;100;95979.06;;;;
2019/09/03 02:00:57;;;;;;;8.550001;7.100001;;;;;;;9.69;100;95979.06;;;;
2019/09/03 02:01:59;;;;;;;8.550001;7.100001;;;;;;;9.69;100;95979.06;;;;
2019/09/03 02:03:00;;;;;;;8.550001;7.100001;;;;;;;9.69;100;95979.06;;;;
2019/09/03 02:04:01;;;;;;;8.200001;7.400001;;;;;;;9.54;100;95980.67;;;;
2019/09/03 02:05:03;;;;;;;8.200001;7.400001;;;;;;;9.54;100;95980.67;;;;
2019/09/03 02:06:05;;;;;;;8.200001;7.400001;;;;;;;9.54;100;95980.67;;;;
2019/09/03 02:07:06;;;;;;;8.200001;7.400001;;;;;;;9.54;100;95980.67;;;;
2019/09/03 02:08:07;;;;;;;8.200001;7.400001;;;;;;;9.54;100;95980.67;;;;
2019/09/03 02:09:08;;;;;;;8.200001;7.400001;;;;;;;9.54;100;95980.67;;;;
2019/09/03 02:10:10;;;;;;;8.200001;7.400001;;;;;;;9.54;100;95980.67;;;;
2019/09/03 02:11:18;;;;;;;8.200001;7.400001;;;;;;;9.54;100;95980.67;;;;
2019/09/03 02:12:19;;;;;;;8.200001;7.400001;;;;;;;9.54;100;95980.67;;;;
2019/09/03 02:13:20;;;;;;;8.200001;7.400001;;;;;;;9.54;100;95980.67;;;;
2019/09/03 02:14:22;;;;;;;7.749999;6.749999;;;;;;;9.49;100;95974.26;;;;
2019/09/03 02:15:23;;;;;;;7.749999;6.749999;;;;;;;9.49;100;95974.26;;;;
2019/09/03 02:16:25;;;;;;;7.749999;6.749999;;;;;;;9.49;100;95974.26;;;;
2019/09/03 02:17:27;;;;;;;7.749999;6.749999;;;;;;;9.49;100;95974.26;;;;
2019/09/03 02:18:28;;;;;;;7.749999;6.749999;;;;;;;9.49;100;95974.26;;;;
2019/09/03 02:19:29;;;;;;;7.749999;6.749999;;;;;;;9.49;100;95974.26;;;;
2019/09/03 02:20:30;;;;;;;7.749999;6.749999;;;;;;;9.49;100;95974.26;;;;
2019/09/03 02:21:32;;;;;;;7.749999;6.749999;;;;;;;9.49;100;95974.26;;;;
2019/09/03 02:22:34;;;;;;;7.749999;6.749999;;;;;;;9.49;100;95974.26;;;;
2019/09/03 02:23:35;;;;;;;7.749999;6.749999;;;;;;;9.49;100;95974.26;;;;
2019/09/03 02:24:36;;;;;;;8.450001;7.65;;;;;;;9.4;100;95976.36;;;;
2019/09/03 02:25:37;;;;;;;8.450001;7.65;;;;;;;9.4;100;95976.36;;;;
2019/09/03 02:26:39;;;;;;;8.450001;7.65;;;;;;;9.4;100;95976.36;;;;
2019/09/03 02:27:40;;;;;;;8.450001;7.65;;;;;;;9.4;100;95976.36;;;;
2019/09/03 02:28:41;;;;;;;8.450001;7.65;;;;;;;9.4;100;95976.36;;;;
2019/09/03 02:29:42;;;;;;;8.450001;7.65;;;;;;;9.4;100;95976.36;;;;
2019/09/03 02:30:43;;;;;;;8.450001;7.65;;;;;;;9.4;100;95976.36;;;;
2019/09/03 02:31:45;;;;;;;8.450001;7.65;;;;;;;9.4;100;95976.36;;;;
2019/09/03 02:32:46;;;;;;;8.450001;7.65;;;;;;;9.4;100;95976.36;;;;
2019/09/03 02:33:47;;;;;;;8.450001;7.65;;;;;;;9.4;100;95976.36;;;;
2019/09/03 02:34:48;;;;;;;8.450001;7.65;;;;;;;9.4;100;95976.36;;;;
2019/09/03 02:35:49;;;;;;;8.050002;7.25;;;;;;;9.4;100;95982.26;;;;
2019/09/03 02:36:51;;;;;;;8.050002;7.25;;;;;;;9.4;100;95982.26;;;;
2019/09/03 02:37:52;;;;;;;8.050002;7.25;;;;;;;9.4;100;95982.26;;;;
2019/09/03 02:38:53;;;;;;;8.050002;7.25;;;;;;;9.4;100;95982.26;;;;
2019/09/03 02:39:54;;;;;;;8.050002;7.25;;;;;;;9.4;100;95982.26;;;;
2019/09/03 02:40:55;;;;;;;8.050002;7.25;;;;;;;9.4;100;95982.26;;;;
2019/09/03 02:41:57;;;;;;;8.050002;7.25;;;;;;;9.4;100;95982.26;;;;
2019/09/03 02:42:58;;;;;;;8.050002;7.25;;;;;;;9.4;100;95982.26;;;;
2019/09/03 02:43:59;;;;;;;8.050002;7.25;;;;;;;9.4;100;95982.26;;;;
2019/09/03 02:45:00;;;;;;;8.050002;7.25;;;;;;;9.4;100;95982.26;;;;
2019/09/03 02:46:02;;;;;;;8.000002;7.299999;;;;;;;9.29;100;95986.95;;;;
2019/09/03 02:47:03;;;;;;;8.000002;7.299999;;;;;;;9.29;100;95986.95;;;;
2019/09/03 02:48:04;;;;;;;8.000002;7.299999;;;;;;;9.29;100;95986.95;;;;
2019/09/03 02:49:06;;;;;;;8.000002;7.299999;;;;;;;9.29;100;95986.95;;;;
2019/09/03 02:50:07;;;;;;;8.000002;7.299999;;;;;;;9.29;100;95986.95;;;;
2019/09/03 02:51:09;;;;;;;8.000002;7.299999;;;;;;;9.29;100;95986.95;;;;
2019/09/03 02:52:10;;;;;;;8.000002;7.299999;;;;;;;9.29;100;95986.95;;;;
2019/09/03 02:53:12;;;;;;;8.000002;7.299999;;;;;;;9.29;100;95986.95;;;;
2019/09/03 02:54:13;;;;;;;8.000002;7.299999;;;;;;;9.29;100;95986.95;;;;
2019/09/03 02:55:14;;;;;;;8.000002;7.299999;;;;;;;9.29;100;95986.95;;;;
2019/09/03 02:56:16;;;;;;;8.000002;7.299999;;;;;;;9.29;100;95986.95;;;;
2019/09/03 02:57:17;;;;;;;7.849999;7.050001;;;;;;;9.23;100;95987.27;;;;
2019/09/03 02:58:19;;;;;;;7.849999;7.050001;;;;;;;9.23;100;95987.27;;;;
2019/09/03 02:59:20;;;;;;;7.849999;7.050001;;;;;;;9.23;100;95987.27;;;;
2019/09/03 03:00:21;;;;;;;7.849999;7.050001;;;;;;;9.23;100;95987.27;;;;
2019/09/03 03:01:23;;;;;;;7.849999;7.050001;;;;;;;9.23;100;95987.27;;;;
2019/09/03 03:02:25;;;;;;;7.849999;7.050001;;;;;;;9.23;100;95987.27;;;;
2019/09/03 03:03:26;;;;;;;7.849999;7.050001;;;;;;;9.23;100;95987.27;;;;
2019/09/03 03:04:27;;;;;;;7.849999;7.050001;;;;;;;9.23;100;95987.27;;;;
2019/09/03 03:05:28;;;;;;;7.849999;7.050001;;;;;;;9.23;100;95987.27;;;;
2019/09/03 03:06:30;;;;;;;7.849999;7.050001;;;;;;;9.23;100;95987.27;;;;
2019/09/03 03:07:32;;;;;;;7.450001;6.799999;;;;;;;9.13;100;95992.78;;;;
2019/09/03 03:08:33;;;;;;;7.450001;6.799999;;;;;;;9.13;100;95992.78;;;;
2019/09/03 03:09:34;;;;;;;7.450001;6.799999;;;;;;;9.13;100;95992.78;;;;
2019/09/03 03:10:35;;;;;;;7.450001;6.799999;;;;;;;9.13;100;95992.78;;;;
2019/09/03 03:11:39;;;;;;;7.450001;6.799999;;;;;;;9.13;100;95992.78;;;;
2019/09/03 03:12:40;;;;;;;7.450001;6.799999;;;;;;;9.13;100;95992.78;;;;
2019/09/03 03:13:41;;;;;;;7.450001;6.799999;;;;;;;9.13;100;95992.78;;;;
2019/09/03 03:14:43;;;;;;;7.450001;6.799999;;;;;;;9.13;100;95992.78;;;;
2019/09/03 03:15:44;;;;;;;7.450001;6.799999;;;;;;;9.13;100;95992.78;;;;
2019/09/03 03:16:46;;;;;;;7.450001;6.799999;;;;;;;9.13;100;95992.78;;;;
2019/09/03 03:17:47;;;;;;;8.15;7.3;;;;;;;9.1;100;95992.29;;;;
2019/09/03 03:18:49;;;;;;;8.15;7.3;;;;;;;9.1;100;95992.29;;;;
2019/09/03 03:19:50;;;;;;;8.15;7.3;;;;;;;9.1;100;95992.29;;;;
2019/09/03 03:20:51;;;;;;;8.15;7.3;;;;;;;9.1;100;95992.29;;;;
2019/09/03 03:21:53;;;;;;;8.15;7.3;;;;;;;9.1;100;95992.29;;;;
2019/09/03 03:22:54;;;;;;;8.15;7.3;;;;;;;9.1;100;95992.29;;;;
2019/09/03 03:23:55;;;;;;;8.15;7.3;;;;;;;9.1;100;95992.29;;;;
2019/09/03 03:24:56;;;;;;;8.15;7.3;;;;;;;9.1;100;95992.29;;;;
2019/09/03 03:25:58;;;;;;;8.15;7.3;;;;;;;9.1;100;95992.29;;;;
2019/09/03 03:26:59;;;;;;;8.15;7.3;;;;;;;9.1;100;95992.29;;;;
2019/09/03 03:28:00;;;;;;;8.15;7.3;;;;;;;9.1;100;95992.29;;;;
2019/09/03 03:29:01;;;;;;;8.449999;7.55;;;;;;;9.04;100;95995.29;;;;
2019/09/03 03:30:02;;;;;;;8.449999;7.55;;;;;;;9.04;100;95995.29;;;;
2019/09/03 03:31:04;;;;;;;8.449999;7.55;;;;;;;9.04;100;95995.29;;;;
2019/09/03 03:32:06;;;;;;;8.449999;7.55;;;;;;;9.04;100;95995.29;;;;
2019/09/03 03:33:07;;;;;;;8.449999;7.55;;;;;;;9.04;100;95995.29;;;;
2019/09/03 03:34:08;;;;;;;8.449999;7.55;;;;;;;9.04;100;95995.29;;;;
2019/09/03 03:35:09;;;;;;;8.449999;7.55;;;;;;;9.04;100;95995.29;;;;
2019/09/03 03:36:12;;;;;;;8.449999;7.55;;;;;;;9.04;100;95995.29;;;;
2019/09/03 03:37:13;;;;;;;8.449999;7.55;;;;;;;9.04;100;95995.29;;;;
2019/09/03 03:38:14;;;;;;;8.449999;7.55;;;;;;;9.04;100;95995.29;;;;
2019/09/03 03:39:15;;;;;;;9.750001;8.2;;;;;;;9.1;100;95983.78;;;;
2019/09/03 03:40:16;;;;;;;9.750001;8.2;;;;;;;9.1;100;95983.78;;;;
2019/09/03 03:41:27;;;;;;;9.750001;8.2;;;;;;;9.1;100;95983.78;;;;
2019/09/03 03:42:29;;;;;;;9.750001;8.2;;;;;;;9.1;100;95983.78;;;;
2019/09/03 03:43:30;;;;;;;9.750001;8.2;;;;;;;9.1;100;95983.78;;;;
2019/09/03 03:44:31;;;;;;;9.750001;8.2;;;;;;;9.1;100;95983.78;;;;
2019/09/03 03:45:32;;;;;;;9.750001;8.2;;;;;;;9.1;100;95983.78;;;;
2019/09/03 03:46:37;;;;;;;9.750001;8.2;;;;;;;9.1;100;95983.78;;;;
2019/09/03 03:47:38;;;;;;;9.750001;8.2;;;;;;;9.1;100;95983.78;;;;
2019/09/03 03:48:39;;;;;;;9.750001;8.2;;;;;;;9.1;100;95983.78;;;;
2019/09/03 03:49:40;;;;;;;9.75;8.349999;;;;;;;9.06;100;95997.78;;;;
2019/09/03 03:50:41;;;;;;;9.75;8.349999;;;;;;;9.06;100;95997.78;;;;
2019/09/03 03:51:44;;;;;;;9.75;8.349999;;;;;;;9.06;100;95997.78;;;;
2019/09/03 03:52:46;;;;;;;9.75;8.349999;;;;;;;9.06;100;95997.78;;;;
2019/09/03 03:53:47;;;;;;;9.75;8.349999;;;;;;;9.06;100;95997.78;;;;
2019/09/03 03:54:48;;;;;;;9.75;8.349999;;;;;;;9.06;100;95997.78;;;;
2019/09/03 03:55:49;;;;;;;9.75;8.349999;;;;;;;9.06;100;95997.78;;;;
2019/09/03 03:56:50;;;;;;;9.75;8.349999;;;;;;;9.06;100;95997.78;;;;
2019/09/03 03:57:51;;;;;;;9.75;8.349999;;;;;;;9.06;100;95997.78;;;;
2019/09/03 03:58:53;;;;;;;9.75;8.349999;;;;;;;9.06;100;95997.78;;;;
2019/09/03 03:59:54;;;;;;;11.8;8.000002;;;;;;;9.06;100;96006.7;;;;
2019/09/03 04:00:55;;;;;;;11.8;8.000002;;;;;;;9.06;100;96006.7;;;;
2019/09/03 04:01:56;;;;;;;11.8;8.000002;;;;;;;9.06;100;96006.7;;;;
2019/09/03 04:02:57;;;;;;;11.8;8.000002;;;;;;;9.06;100;96006.7;;;;
2019/09/03 04:03:59;;;;;;;11.8;8.000002;;;;;;;9.06;100;96006.7;;;;
2019/09/03 04:05:00;;;;;;;11.8;8.000002;;;;;;;9.06;100;96006.7;;;;
2019/09/03 04:06:01;;;;;;;11.8;8.000002;;;;;;;9.06;100;96006.7;;;;
2019/09/03 04:07:03;;;;;;;11.8;8.000002;;;;;;;9.06;100;96006.7;;;;
2019/09/03 04:08:04;;;;;;;11.8;8.000002;;;;;;;9.06;100;96006.7;;;;
2019/09/03 04:09:05;;;;;;;11.8;8.000002;;;;;;;9.06;100;96006.7;;;;
2019/09/03 04:10:06;;;;;;;11.8;8.000002;;;;;;;9.06;100;96006.7;;;;
2019/09/03 04:11:08;;;;;;;10.7;9.599999;;;;;;;9;100;96017.46;;;;
2019/09/03 04:12:09;;;;;;;10.7;9.599999;;;;;;;9;100;96017.46;;;;
2019/09/03 04:13:10;;;;;;;10.7;9.599999;;;;;;;9;100;96017.46;;;;
2019/09/03 04:14:11;;;;;;;10.7;9.599999;;;;;;;9;100;96017.46;;;;
2019/09/03 04:15:12;;;;;;;10.7;9.599999;;;;;;;9;100;96017.46;;;;
2019/09/03 04:16:14;;;;;;;10.7;9.599999;;;;;;;9;100;96017.46;;;;
2019/09/03 04:17:16;;;;;;;10.7;9.599999;;;;;;;9;100;96017.46;;;;
2019/09/03 04:18:17;;;;;;;10.7;9.599999;;;;;;;9;100;96017.46;;;;
2019/09/03 04:19:18;;;;;;;10.7;9.599999;;;;;;;9;100;96017.46;;;;
2019/09/03 04:20:20;;;;;;;10.7;9.599999;;;;;;;9;100;96017.46;;;;
2019/09/03 04:21:22;;;;;;;11.2;10.1;;;;;;;9.08;100;96020.78;;;;
2019/09/03 04:22:23;;;;;;;11.2;10.1;;;;;;;9.08;100;96020.78;;;;
2019/09/03 04:23:24;;;;;;;11.2;10.1;;;;;;;9.08;100;96020.78;;;;
2019/09/03 04:24:25;;;;;;;11.2;10.1;;;;;;;9.08;100;96020.78;;;;
2019/09/03 04:25:26;;;;;;;11.2;10.1;;;;;;;9.08;100;96020.78;;;;
2019/09/03 04:26:28;;;;;;;11.2;10.1;;;;;;;9.08;100;96020.78;;;;
2019/09/03 04:27:29;;;;;;;11.2;10.1;;;;;;;9.08;100;96020.78;;;;
2019/09/03 04:28:30;;;;;;;11.2;10.1;;;;;;;9.08;100;96020.78;;;;
2019/09/03 04:29:32;;;;;;;11.2;10.1;;;;;;;9.08;100;96020.78;;;;
2019/09/03 04:30:33;;;;;;;11.2;10.1;;;;;;;9.08;100;96020.78;;;;
2019/09/03 04:31:38;;;;;;;11.2;10.1;;;;;;;9.08;100;96020.78;;;;
2019/09/03 04:32:39;;;;;;;10.7;9.650001;;;;;;;9.11;100;96019.94;;;;
2019/09/03 04:33:40;;;;;;;10.7;9.650001;;;;;;;9.11;100;96019.94;;;;
2019/09/03 04:34:41;;;;;;;10.7;9.650001;;;;;;;9.11;100;96019.94;;;;
2019/09/03 04:35:43;;;;;;;10.7;9.650001;;;;;;;9.11;100;96019.94;;;;
2019/09/03 04:36:46;;;;;;;10.7;9.650001;;;;;;;9.11;100;96019.94;;;;
2019/09/03 04:37:47;;;;;;;10.7;9.650001;;;;;;;9.11;100;96019.94;;;;
2019/09/03 04:38:48;;;;;;;10.7;9.650001;;;;;;;9.11;100;96019.94;;;;
2019/09/03 04:39:49;;;;;;;10.7;9.650001;;;;;;;9.11;100;96019.94;;;;
2019/09/03 04:40:50;;;;;;;10.7;9.650001;;;;;;;9.11;100;96019.94;;;;
2019/09/03 04:41:53;;;;;;;10.7;9.650001;;;;;;;9.11;100;96019.94;;;;
2019/09/03 04:42:54;;;;;;;10.35;9.299999;;;;;;;9.17;100;96023.58;;;;
2019/09/03 04:43:55;;;;;;;10.35;9.299999;;;;;;;9.17;100;96023.58;;;;
2019/09/03 04:44:56;;;;;;;10.35;9.299999;;;;;;;9.17;100;96023.58;;;;
2019/09/03 04:45:57;;;;;;;10.35;9.299999;;;;;;;9.17;100;96023.58;;;;
2019/09/03 04:46:59;;;;;;;10.35;9.299999;;;;;;;9.17;100;96023.58;;;;
2019/09/03 04:48:00;;;;;;;10.35;9.299999;;;;;;;9.17;100;96023.58;;;;
2019/09/03 04:49:01;;;;;;;10.35;9.299999;;;;;;;9.17;100;96023.58;;;;
2019/09/03 04:50:03;;;;;;;10.35;9.299999;;;;;;;9.17;100;96023.58;;;;
2019/09/03 04:51:04;;;;;;;10.35;9.299999;;;;;;;9.17;100;96023.58;;;;
2019/09/03 04:52:06;;;;;;;10.35;9.299999;;;;;;;9.17;100;96023.58;;;;
2019/09/03 04:53:07;;;;;;;10.85;9.800001;;;;;;;9.19;100;96027.4;;;;
2019/09/03 04:54:08;;;;;;;10.85;9.800001;;;;;;;9.19;100;96027.4;;;;
2019/09/03 04:55:10;;;;;;;10.85;9.800001;;;;;;;9.19;100;96027.4;;;;
2019/09/03 04:56:11;;;;;;;10.85;9.800001;;;;;;;9.19;100;96027.4;;;;
2019/09/03 04:57:13;;;;;;;10.85;9.800001;;;;;;;9.19;100;96027.4;;;;
2019/09/03 04:58:14;;;;;;;10.85;9.800001;;;;;;;9.19;100;96027.4;;;;
2019/09/03 04:59:15;;;;;;;10.85;9.800001;;;;;;;9.19;100;96027.4;;;;
2019/09/03 05:00:16;;;;;;;10.85;9.800001;;;;;;;9.19;100;96027.4;;;;
2019/09/03 05:01:19;;;;;;;10.85;9.800001;;;;;;;9.19;100;96027.4;;;;
2019/09/03 05:02:21;;;;;;;10.85;9.800001;;;;;;;9.19;100;96027.4;;;;
2019/09/03 05:03:22;;;;;;;10.85;9.800001;;;;;;;9.19;100;96027.4;;;;
2019/09/03 05:04:23;;;;;;;12.2;10.9;;;;;;;9.43;100;96028.07;;;;
2019/09/03 05:05:24;;;;;;;12.2;10.9;;;;;;;9.43;100;96028.07;;;;
2019/09/03 05:06:27;;;;;;;12.2;10.9;;;;;;;9.43;100;96028.07;;;;
2019/09/03 05:07:28;;;;;;;12.2;10.9;;;;;;;9.43;100;96028.07;;;;
2019/09/03 05:08:29;;;;;;;12.2;10.9;;;;;;;9.43;100;96028.07;;;;
2019/09/03 05:09:30;;;;;;;12.2;10.9;;;;;;;9.43;100;96028.07;;;;
2019/09/03 05:10:31;;;;;;;12.2;10.9;;;;;;;9.43;100;96028.07;;;;
2019/09/03 05:11:35;;;;;;;12.2;10.9;;;;;;;9.43;100;96028.07;;;;
2019/09/03 05:12:36;;;;;;;12.2;10.9;;;;;;;9.43;100;96028.07;;;;
2019/09/03 05:13:38;;;;;;;12.2;10.9;;;;;;;9.43;100;96028.07;;;;
2019/09/03 05:14:39;;;;;;;12.25;10.45;;;;;;;9.61;100;96040.88;;;;
2019/09/03 05:15:40;;;;;;;12.25;10.45;;;;;;;9.61;100;96040.88;;;;
2019/09/03 05:16:42;;;;;;;12.25;10.45;;;;;;;9.61;100;96040.88;;;;
2019/09/03 05:17:43;;;;;;;12.25;10.45;;;;;;;9.61;100;96040.88;;;;
2019/09/03 05:18:44;;;;;;;12.25;10.45;;;;;;;9.61;100;96040.88;;;;
2019/09/03 05:19:45;;;;;;;12.25;10.45;;;;;;;9.61;100;96040.88;;;;
2019/09/03 05:20:46;;;;;;;12.25;10.45;;;;;;;9.61;100;96040.88;;;;
2019/09/03 05:21:48;;;;;;;12.25;10.45;;;;;;;9.61;100;96040.88;;;;
2019/09/03 05:22:49;;;;;;;12.25;10.45;;;;;;;9.61;100;96040.88;;;;
2019/09/03 05:23:50;;;;;;;12.25;10.45;;;;;;;9.61;100;96040.88;;;;
2019/09/03 05:24:51;;;;;;;11.2;9.500002;;;;;;;9.85;100;96037.5;;;;
2019/09/03 05:25:52;;;;;;;11.2;9.500002;;;;;;;9.85;100;96037.5;;;;
2019/09/03 05:26:54;;;;;;;11.2;9.500002;;;;;;;9.85;100;96037.5;;;;
2019/09/03 05:27:55;;;;;;;11.2;9.500002;;;;;;;9.85;100;96037.5;;;;
2019/09/03 05:28:56;;;;;;;11.2;9.500002;;;;;;;9.85;100;96037.5;;;;
2019/09/03 05:29:57;;;;;;;11.2;9.500002;;;;;;;9.85;100;96037.5;;;;
2019/09/03 05:30:58;;;;;;;11.2;9.500002;;;;;;;9.85;100;96037.5;;;;
2019/09/03 05:31:59;;;;;;;11.2;9.500002;;;;;;;9.85;100;96037.5;;;;
2019/09/03 05:33:00;;;;;;;11.2;9.500002;;;;;;;9.85;100;96037.5;;;;
2019/09/03 05:34:02;;;;;;;11.2;9.500002;;;;;;;9.85;100;96037.5;;;;
2019/09/03 05:35:03;;;;;;;11.2;9.500002;;;;;;;9.85;100;96037.5;;;;
2019/09/03 05:36:05;;;;;;;10.4;9.5;;;;;;;10.02;100;96052.99;;;;
2019/09/03 05:37:06;;;;;;;10.4;9.5;;;;;;;10.02;100;96052.99;;;;
2019/09/03 05:38:07;;;;;;;10.4;9.5;;;;;;;10.02;100;96052.99;;;;
2019/09/03 05:39:09;;;;;;;10.4;9.5;;;;;;;10.02;100;96052.99;;;;
2019/09/03 05:40:10;;;;;;;10.4;9.5;;;;;;;10.02;100;96052.99;;;;
2019/09/03 05:41:12;;;;;;;10.4;9.5;;;;;;;10.02;100;96052.99;;;;
2019/09/03 05:42:14;;;;;;;10.4;9.5;;;;;;;10.02;100;96052.99;;;;
2019/09/03 05:43:15;;;;;;;10.4;9.5;;;;;;;10.02;100;96052.99;;;;
2019/09/03 05:44:16;;;;;;;10.4;9.5;;;;;;;10.02;100;96052.99;;;;
2019/09/03 05:45:17;;;;;;;10.4;9.5;;;;;;;10.02;100;96052.99;;;;
2019/09/03 05:46:19;;;;;;;10;9.049999;;;;;;;10.32;100;96046.06;;;;
2019/09/03 05:47:20;;;;;;;10;9.049999;;;;;;;10.32;100;96046.06;;;;
2019/09/03 05:48:22;;;;;;;10;9.049999;;;;;;;10.32;100;96046.06;;;;
2019/09/03 05:49:23;;;;;;;10;9.049999;;;;;;;10.32;100;96046.06;;;;
2019/09/03 05:50:24;;;;;;;10;9.049999;;;;;;;10.32;100;96046.06;;;;
2019/09/03 05:51:26;;;;;;;10;9.049999;;;;;;;10.32;100;96046.06;;;;
2019/09/03 05:52:27;;;;;;;10;9.049999;;;;;;;10.32;100;96046.06;;;;
2019/09/03 05:53:28;;;;;;;10;9.049999;;;;;;;10.32;100;96046.06;;;;
2019/09/03 05:54:29;;;;;;;10;9.049999;;;;;;;10.32;100;96046.06;;;;
2019/09/03 05:55:31;;;;;;;10;9.049999;;;;;;;10.32;100;96046.06;;;;
2019/09/03 05:56:32;;;;;;;9;8.249999;;;;;;;10.6;100;96055.64;;;;
2019/09/03 05:57:33;;;;;;;9;8.249999;;;;;;;10.6;100;96055.64;;;;
2019/09/03 05:58:35;;;;;;;9;8.249999;;;;;;;10.6;100;96055.64;;;;
2019/09/03 05:59:36;;;;;;;9;8.249999;;;;;;;10.6;100;96055.64;;;;
2019/09/03 06:00:37;;;;;;;9;8.249999;;;;;;;10.6;100;96055.64;;;;
2019/09/03 06:01:42;;;;;;;9;8.249999;;;;;;;10.6;100;96055.64;;;;
2019/09/03 06:02:43;;;;;;;9;8.249999;;;;;;;10.6;100;96055.64;;;;